This is the latest recevied weather packets stored in our database for station/object KE9ADS. If no packets are shown the sender has not sent any weather packets the latest 10 day(s).
| Time | Temp. | Humidity | Pressure | Rain* | Wind** | Luminosity | Snow |
|---|---|---|---|---|---|---|---|
| 1777646152 | 9.44° C | 58% | 1020.6 hPa | 0 mm | - | 216 W/m² | - |
| 1777645552 | 7.78° C | 61% | 1020.5 hPa | 0 mm | - | 503 W/m² | - |
| 1777644949 | 7.78° C | 62% | 1020.6 hPa | 0 mm | - | 181 W/m² | - |
| 1777644349 | 7.22° C | 65% | 1020.7 hPa | 0 mm | - | 245 W/m² | - |
| 1777643748 | 7.22° C | 65% | 1020.7 hPa | 0 mm | - | 94 W/m² | - |
| 1777643148 | 7.22° C | 65% | 1020.4 hPa | 0 mm | - | 95 W/m² | - |
| 1777642548 | 7.22° C | 65% | 1020.5 hPa | 0 mm | - | 134 W/m² | - |
| 1777641947 | 6.67° C | 68% | 1020.6 hPa | 0 mm | - | 141 W/m² | - |
| 1777641343 | 6.11° C | 70% | 1020.7 hPa | 0 mm | - | 92 W/m² | - |
| 1777640741 | 5.56° C | 71% | 1020.6 hPa | 0 mm | - | 80 W/m² | - |
| 1777640141 | 5.56° C | 72% | 1020.6 hPa | 0 mm | - | 51 W/m² | - |
| 1777639541 | 5.56° C | 73% | 1020.5 hPa | 0 mm | - | 47 W/m² | - |
| 1777638940 | 5.56° C | 74% | 1020.6 hPa | 0 mm | - | 51 W/m² | - |
| 1777638339 | 5° C | 75% | 1020.2 hPa | 0 mm | - | 47 W/m² | - |
| 1777637737 | 4.44° C | 76% | 1020.1 hPa | 0 mm | - | 70 W/m² | - |
| 1777637137 | 4.44° C | 76% | 1020.2 hPa | 0 mm | - | 32 W/m² | - |
| 1777636535 | 4.44° C | 76% | 1020.2 hPa | 0 mm | - | 35 W/m² | - |
| 1777635931 | 3.89° C | 79% | 1020 hPa | 0 mm | - | 25 W/m² | - |
| 1777635330 | 2.78° C | 85% | 1019.8 hPa | 0 mm | - | 12 W/m² | - |
| 1777634729 | 2.22° C | 86% | 1019.8 hPa | 0 mm | - | 9 W/m² | - |
| 1777634129 | 1.67° C | 86% | 1019.4 hPa | 0 mm | - | 9 W/m² | - |
| 1777633529 | 2.22° C | 86% | 1019.5 hPa | 0 mm | - | 4 W/m² | - |
| 1777632929 | 1.67° C | 85% | 1019.4 hPa | 0 mm | - | 2 W/m² | - |
| 1777632328 | 2.22° C | 85% | 1019.5 hPa | 0 mm | - | 0 W/m² | - |
| 1777631723 | 1.67° C | 85% | 1019.5 hPa | 0 mm | - | 0 W/m² | - |
* Rain latest hour (hover to see other rain measurements)
** Current wind speed in m/s (hover to see current wind gust speed)